Time;durP1;ratioP1;P1;durP2;ratioP2;P2;SDS_P1;SDS_P2;PMS_P1;PMS_P2;Temp;Humidity;BMP_temperature;BMP_pressure;BME280_temperature;BME280_humidity;BME280_pressure;Samples;Min_cycle;Max_cycle;Signal;HPM_P1;HPM_P2
2022/01/19 00:00:01;;;;;;;56.50;18.65;;;;;;;2.18;100.00;103319.09;10543386;28;20052;-81
2022/01/19 00:05:01;;;;;;;30.38;15.10;;;;;;;2.04;100.00;103302.00;10537250;28;20028;-81
2022/01/19 00:10:05;;;;;;;20.40;13.27;;;;;;;1.83;100.00;103290.66;10536883;28;20089;-80
2022/01/19 00:15:06;;;;;;;39.83;14.80;;;;;;;1.68;100.00;103303.97;10535305;28;20057;-81
2022/01/19 00:20:07;;;;;;;41.60;15.05;;;;;;;1.54;100.00;103296.69;10554907;28;20033;-81
2022/01/19 00:25:08;;;;;;;27.25;14.70;;;;;;;1.48;100.00;103297.00;10543781;28;20027;-81
2022/01/19 00:30:09;;;;;;;32.42;16.42;;;;;;;1.39;100.00;103296.50;10528386;28;20062;-81
2022/01/19 00:35:10;;;;;;;17.15;13.68;;;;;;;1.30;100.00;103266.75;10529153;28;20048;-81
2022/01/19 00:40:12;;;;;;;27.35;13.73;;;;;;;1.23;100.00;103226.19;10544206;28;20044;-80
2022/01/19 00:45:13;;;;;;;54.17;15.73;;;;;;;1.15;100.00;103207.91;10517175;28;20043;-81
2022/01/19 00:50:17;;;;;;;28.38;12.32;;;;;;;1.10;100.00;103207.25;10525534;28;20032;-80
2022/01/19 00:55:17;;;;;;;24.25;10.70;;;;;;;1.02;100.00;103217.50;10522534;28;20043;-81
2022/01/19 01:00:23;;;;;;;45.13;14.90;;;;;;;0.92;100.00;103224.19;10534036;28;20035;-81
2022/01/19 01:05:23;;;;;;;22.17;12.45;;;;;;;0.82;100.00;103206.94;10515998;28;20062;-81
2022/01/19 01:10:24;;;;;;;25.70;13.68;;;;;;;0.68;100.00;103195.16;10533303;28;20025;-81
2022/01/19 01:15:47;;;;;;;18.00;12.90;;;;;;;0.55;100.00;103166.53;10529056;28;20029;-81
2022/01/19 01:20:50;;;;;;;16.25;12.70;;;;;;;0.47;100.00;103153.56;10530586;28;20040;-81
2022/01/19 01:25:50;;;;;;;38.47;13.68;;;;;;;0.40;100.00;103133.50;10528495;28;20096;-80
2022/01/19 01:30:51;;;;;;;17.45;13.63;;;;;;;0.29;100.00;103130.50;10524312;28;20061;-80
2022/01/19 01:35:51;;;;;;;22.45;13.55;;;;;;;0.22;100.00;103122.84;10522059;28;20488;-80
2022/01/19 01:40:52;;;;;;;17.77;14.10;;;;;;;0.30;100.00;103109.13;10502639;28;20677;-80
2022/01/19 01:45:53;;;;;;;41.42;16.85;;;;;;;0.20;100.00;103079.41;10512594;28;20093;-80
2022/01/19 01:56:16;;;;;;;18.75;13.45;;;;;;;0.09;100.00;103086.19;10519296;28;20048;-80
2022/01/19 02:01:17;;;;;;;19.95;14.95;;;;;;;0.04;100.00;103072.25;10511140;28;20039;-80
2022/01/19 02:21:56;;;;;;;19.85;15.52;;;;;;;0.43;100.00;103072.91;10519522;28;20039;-80
2022/01/19 02:42:22;;;;;;;25.58;17.30;;;;;;;1.09;100.00;103013.44;10519955;28;20040;-80
2022/01/19 02:52:23;;;;;;;26.83;18.35;;;;;;;1.19;100.00;102975.56;10516195;28;20067;-81
2022/01/19 02:57:26;;;;;;;23.70;16.65;;;;;;;1.17;100.00;102956.97;10514991;28;20052;-80
2022/01/19 03:13:06;;;;;;;36.28;20.80;;;;;;;1.55;100.00;102925.41;10515210;28;20125;-81
2022/01/19 03:18:06;;;;;;;40.88;22.77;;;;;;;1.88;100.00;102911.00;10495908;28;20044;-81
2022/01/19 03:23:18;;;;;;;51.70;28.83;;;;;;;2.02;100.00;102897.72;10508331;28;20108;-80
2022/01/19 03:28:18;;;;;;;52.40;31.15;;;;;;;2.18;100.00;102911.00;10491966;28;20040;-81
2022/01/19 03:33:19;;;;;;;54.10;29.17;;;;;;;2.40;100.00;102909.69;10507520;28;20032;-80
2022/01/19 03:38:19;;;;;;;57.83;31.80;;;;;;;2.58;100.00;102900.50;10506933;28;20514;-80
2022/01/19 03:43:20;;;;;;;41.35;28.60;;;;;;;2.76;100.00;102899.34;10506351;28;20085;-81
2022/01/19 03:53:36;;;;;;;41.88;27.27;;;;;;;2.95;100.00;102904.38;10508851;28;20162;-80
2022/01/19 03:58:37;;;;;;;42.22;25.20;;;;;;;3.01;100.00;102901.31;10495743;28;20043;-81
2022/01/19 04:08:44;;;;;;;41.33;28.50;;;;;;;3.14;100.00;102876.44;10514398;28;20043;-80
2022/01/19 04:13:58;;;;;;;47.80;27.98;;;;;;;3.22;100.00;102868.72;10513911;28;20047;-81
2022/01/19 04:19:22;;;;;;;41.35;27.77;;;;;;;3.30;100.00;102873.59;10520388;28;20036;-81
2022/01/19 04:24:23;;;;;;;40.97;27.17;;;;;;;3.39;100.00;102868.50;10522599;28;20037;-81
2022/01/19 04:29:24;;;;;;;53.78;32.17;;;;;;;3.44;100.00;102871.72;10510001;28;20048;-81
2022/01/19 04:34:24;;;;;;;45.03;29.27;;;;;;;3.50;100.00;102857.91;10532223;28;20036;-82
2022/01/19 05:06:19;;;;;;;44.10;30.42;;;;;;;3.84;100.00;102815.41;10538238;28;20037;-82
2022/01/19 05:16:39;;;;;;;59.28;33.80;;;;;;;3.95;100.00;102796.75;10514833;28;20472;-81
2022/01/19 05:21:39;;;;;;;68.03;37.00;;;;;;;4.02;100.00;102799.00;10487653;28;20025;-80
2022/01/19 05:26:40;;;;;;;61.47;35.78;;;;;;;4.08;100.00;102790.53;10523555;28;20037;-81
2022/01/19 05:31:40;;;;;;;56.33;35.80;;;;;;;4.16;100.00;102785.50;10516971;28;20025;-80
2022/01/19 05:36:41;;;;;;;62.08;36.58;;;;;;;4.24;100.00;102771.53;10522845;28;20052;-81
2022/01/19 05:41:41;;;;;;;88.43;40.33;;;;;;;4.30;100.00;102761.22;10509681;28;20429;-81
2022/01/19 05:46:42;;;;;;;72.13;39.25;;;;;;;4.35;100.00;102759.06;10497351;28;20056;-79
2022/01/19 05:51:42;;;;;;;75.63;40.97;;;;;;;4.41;100.00;102747.91;10499957;28;20559;-78
2022/01/19 05:56:43;;;;;;;81.25;41.88;;;;;;;4.46;100.00;102730.59;10497648;28;20028;-78
2022/01/19 06:01:43;;;;;;;72.75;41.10;;;;;;;4.42;100.00;102725.47;10501900;28;20119;-78
2022/01/19 06:06:44;;;;;;;84.22;47.42;;;;;;;4.41;100.00;102712.16;10500083;28;20108;-80
2022/01/19 06:11:44;;;;;;;82.78;46.58;;;;;;;4.46;100.00;102701.09;10497730;28;20394;-79
2022/01/19 06:16:45;;;;;;;80.28;45.72;;;;;;;4.48;100.00;102691.13;10498207;28;20037;-79
2022/01/19 06:21:46;;;;;;;77.78;48.20;;;;;;;4.49;100.00;102690.13;10497288;28;20048;-79
2022/01/19 06:26:46;;;;;;;84.20;49.58;;;;;;;4.50;100.00;102671.25;10497173;28;20470;-79
2022/01/19 06:31:47;;;;;;;106.22;54.30;;;;;;;4.54;100.00;102671.88;10497010;28;20056;-80
2022/01/19 06:36:51;;;;;;;90.78;51.28;;;;;;;4.50;100.00;102665.00;10496630;28;20534;-79
2022/01/19 06:41:51;;;;;;;81.68;47.83;;;;;;;4.55;100.00;102666.38;10497388;28;20568;-80
2022/01/19 06:46:52;;;;;;;81.95;47.97;;;;;;;4.57;100.00;102655.56;10496933;28;20044;-79
2022/01/19 06:51:52;;;;;;;88.70;53.05;;;;;;;4.59;100.00;102642.84;10480476;28;20130;-79
2022/01/19 06:56:53;;;;;;;86.90;51.10;;;;;;;4.56;100.00;102635.03;10499898;28;20370;-80
2022/01/19 07:01:53;;;;;;;93.25;50.90;;;;;;;4.61;100.00;102632.88;10504154;28;20028;-79
2022/01/19 07:06:54;;;;;;;101.35;58.53;;;;;;;4.59;100.00;102632.97;10504207;28;20028;-79
2022/01/19 07:11:55;;;;;;;112.20;57.22;;;;;;;4.59;100.00;102632.97;10503552;28;20467;-79
2022/01/19 07:16:56;;;;;;;93.22;53.55;;;;;;;4.59;100.00;102630.28;10509965;28;20035;-79
2022/01/19 07:21:57;;;;;;;97.25;56.42;;;;;;;4.56;100.00;102617.16;10515545;28;20041;-79
2022/01/19 07:26:57;;;;;;;91.65;54.13;;;;;;;4.58;100.00;102609.81;10504459;28;20371;-79
2022/01/19 07:31:58;;;;;;;84.70;51.40;;;;;;;4.59;100.00;102613.34;10504384;28;20107;-80
2022/01/19 07:36:59;;;;;;;92.13;52.22;;;;;;;4.65;100.00;102619.09;10505015;28;20053;-79
2022/01/19 07:42:00;;;;;;;97.07;54.70;;;;;;;4.64;100.00;102616.56;10503885;28;20448;-79
2022/01/19 07:47:07;;;;;;;82.10;55.30;;;;;;;4.68;100.00;102609.97;10505822;28;20115;-79
2022/01/19 07:52:09;;;;;;;81.95;53.38;;;;;;;4.70;100.00;102601.81;10505318;28;20036;-79
2022/01/19 07:57:09;;;;;;;98.35;54.80;;;;;;;4.72;100.00;102591.81;10503326;28;20139;-79
2022/01/19 08:02:12;;;;;;;83.63;50.75;;;;;;;4.74;100.00;102579.97;10503583;28;20404;-79
2022/01/19 08:07:12;;;;;;;82.45;48.97;;;;;;;4.80;100.00;102568.78;10501248;28;20035;-80
2022/01/19 08:12:13;;;;;;;77.22;48.95;;;;;;;4.79;100.00;102559.03;10485275;28;20062;-79
2022/01/19 08:17:14;;;;;;;83.25;51.83;;;;;;;4.86;100.00;102565.63;10502597;28;20024;-79
2022/01/19 08:22:15;;;;;;;84.70;53.13;;;;;;;4.87;100.00;102567.31;10484019;28;20040;-80
2022/01/19 08:27:15;;;;;;;100.43;51.28;;;;;;;4.92;100.00;102555.38;10501163;28;20081;-80
2022/01/19 08:32:15;;;;;;;85.85;50.17;;;;;;;4.91;100.00;102546.47;10503018;28;20359;-79
2022/01/19 08:37:16;;;;;;;83.93;46.75;;;;;;;4.97;100.00;102554.03;10484159;28;20040;-79
2022/01/19 08:42:16;;;;;;;77.03;47.08;;;;;;;4.93;100.00;102549.03;10501838;28;20555;-80
2022/01/19 08:47:18;;;;;;;100.75;48.17;;;;;;;4.93;100.00;102543.66;10517329;28;20040;-80
2022/01/19 08:52:20;;;;;;;77.35;43.55;;;;;;;5.00;100.00;102531.47;10500447;28;20028;-79
2022/01/19 08:57:20;;;;;;;88.75;48.25;;;;;;;5.01;100.00;102530.47;10500243;28;20035;-80
2022/01/19 09:02:21;;;;;;;65.55;40.92;;;;;;;4.84;100.00;102516.56;10501209;28;20043;-79
2022/01/19 09:07:21;;;;;;;71.25;42.95;;;;;;;4.82;100.00;102507.78;10499946;28;20411;-80
2022/01/19 09:12:22;;;;;;;75.47;43.17;;;;;;;4.82;100.00;102499.75;10499384;28;20028;-80
2022/01/19 09:17:22;;;;;;;90.07;42.30;;;;;;;4.88;100.00;102493.00;10500919;28;20337;-80
2022/01/19 09:22:23;;;;;;;58.63;33.53;;;;;;;4.89;100.00;102475.94;10500751;28;20551;-79
2022/01/19 09:27:24;;;;;;;70.47;40.63;;;;;;;4.78;100.00;102457.16;10517522;28;20107;-79
2022/01/19 09:32:24;;;;;;;87.20;42.22;;;;;;;4.81;100.00;102464.94;10501705;28;20025;-78
2022/01/19 09:37:27;;;;;;;62.20;39.78;;;;;;;4.89;100.00;102457.16;10501496;28;20048;-80
2022/01/19 09:42:28;;;;;;;77.97;41.92;;;;;;;4.87;100.00;102454.56;10503302;28;20107;-79
2022/01/19 09:47:28;;;;;;;64.47;37.63;;;;;;;4.89;100.00;102468.75;10519419;28;20036;-80
2022/01/19 09:52:29;;;;;;;76.20;39.22;;;;;;;4.86;100.00;102477.03;10522017;28;20028;-80
2022/01/19 09:57:32;;;;;;;57.40;38.40;;;;;;;4.92;100.00;102481.06;10514937;28;20132;-79
2022/01/19 10:02:33;;;;;;;57.22;35.60;;;;;;;4.92;100.00;102477.53;10498900;28;20047;-80
2022/01/19 10:07:33;;;;;;;65.80;37.42;;;;;;;4.89;100.00;102479.47;10506111;28;20046;-80
2022/01/19 10:18:22;;;;;;;63.42;43.55;;;;;;;4.86;100.00;102466.31;10505200;28;20036;-80
2022/01/19 10:23:33;;;;;;;61.35;38.65;;;;;;;4.98;100.00;102447.50;10502657;28;20452;-80
2022/01/19 10:29:13;;;;;;;62.53;37.97;;;;;;;5.01;100.00;102455.31;10505793;28;20400;-80
2022/01/19 10:34:20;;;;;;;68.18;37.85;;;;;;;5.00;100.00;102450.91;10513527;28;20466;-80
2022/01/19 10:39:22;;;;;;;61.30;40.42;;;;;;;5.08;100.00;102443.13;10511529;28;20082;-80
2022/01/19 10:44:54;;;;;;;71.15;42.10;;;;;;;5.16;100.00;102431.75;10494195;28;20028;-80
2022/01/19 10:49:56;;;;;;;61.33;34.42;;;;;;;5.18;100.00;102411.84;10513280;28;20047;-80
2022/01/19 10:54:58;;;;;;;72.03;39.45;;;;;;;5.27;100.00;102400.34;10514699;28;20043;-80
2022/01/19 11:00:17;;;;;;;63.85;37.70;;;;;;;5.40;100.00;102386.75;10502070;28;20115;-80
2022/01/19 11:05:18;;;;;;;73.22;42.65;;;;;;;5.85;100.00;102381.19;10518410;28;20035;-80
2022/01/19 11:10:21;;;;;;;60.10;37.03;;;;;;;6.37;100.00;102375.88;10499664;28;20043;-80
2022/01/19 11:15:21;;;;;;;63.20;36.97;;;;;;;6.95;100.00;102368.03;10521285;28;20464;-80
2022/01/19 11:20:26;;;;;;;50.88;31.60;;;;;;;7.09;100.00;102353.34;10505774;28;20028;-80
2022/01/19 11:26:00;;;;;;;52.85;28.10;;;;;;;7.07;100.00;102340.00;10497699;28;20024;-80
2022/01/19 11:31:03;;;;;;;42.60;25.25;;;;;;;6.68;100.00;102328.28;10516002;28;20031;-81
2022/01/19 11:36:05;;;;;;;39.55;28.10;;;;;;;6.78;100.00;102315.69;10515801;28;20379;-80
2022/01/19 11:41:10;;;;;;;48.13;30.45;;;;;;;6.86;100.00;102302.41;10529930;28;20032;-81
2022/01/19 11:46:26;;;;;;;43.50;27.45;;;;;;;6.70;100.00;102297.56;10517004;28;20492;-80
2022/01/19 11:51:37;;;;;;;45.90;28.70;;;;;;;6.43;100.00;102298.16;10515629;28;20032;-80
2022/01/19 11:57:15;;;;;;;45.55;26.15;;;;;;;6.34;100.00;102272.06;10517228;28;20032;-81
2022/01/19 12:02:24;;;;;;;33.55;23.83;;;;;;;6.34;100.00;102265.84;10517008;28;20048;-80
2022/01/19 12:07:52;;;;;;;43.95;25.83;;;;;;;6.38;100.00;102260.06;10514364;28;20037;-80
2022/01/19 12:18:57;;;;;;;44.13;26.85;;;;;;;6.13;100.00;102237.19;10519522;28;20033;-81
2022/01/19 12:24:16;;;;;;;47.70;29.30;;;;;;;6.15;100.00;102248.63;10500646;28;20025;-80
2022/01/19 12:29:38;;;;;;;46.97;27.15;;;;;;;6.13;100.00;102244.41;10520986;28;20028;-82
2022/01/19 12:34:41;;;;;;;36.90;19.40;;;;;;;6.07;100.00;102223.44;10526615;28;20082;-80
2022/01/19 12:39:45;;;;;;;50.35;28.02;;;;;;;6.08;100.00;102211.69;10528711;28;20063;-80
2022/01/19 12:44:56;;;;;;;41.35;26.35;;;;;;;6.12;100.00;102191.59;10513986;28;20024;-81
2022/01/19 12:50:29;;;;;;;51.25;29.60;;;;;;;6.17;100.00;102192.88;10520299;28;20025;-81
2022/01/19 12:55:33;;;;;;;42.35;26.52;;;;;;;6.19;100.00;102181.97;10526448;28;20025;-81
2022/01/19 13:00:34;;;;;;;41.33;24.15;;;;;;;6.20;100.00;102181.84;10518539;28;20035;-81
2022/01/19 13:05:35;;;;;;;34.70;24.33;;;;;;;6.26;100.00;102167.84;10520976;28;20452;-80
2022/01/19 13:10:49;;;;;;;37.85;22.88;;;;;;;6.28;100.00;102162.31;10508037;28;20440;-80
2022/01/19 13:16:06;;;;;;;38.85;22.20;;;;;;;6.19;100.00;102153.25;10523361;28;20036;-80
2022/01/19 13:21:12;;;;;;;50.97;21.73;;;;;;;6.23;100.00;102141.22;10520817;28;20085;-80
2022/01/19 13:26:12;;;;;;;29.67;19.65;;;;;;;6.29;100.00;102126.38;10520576;28;20024;-81
2022/01/19 13:31:21;;;;;;;32.83;20.52;;;;;;;6.25;100.00;102112.38;10503981;28;20122;-81
2022/01/19 13:36:31;;;;;;;35.40;18.73;;;;;;;6.31;100.00;102107.41;10518221;28;20040;-80
2022/01/19 13:41:32;;;;;;;27.00;15.95;;;;;;;6.33;100.00;102097.34;10536689;28;20090;-81
2022/01/19 13:46:33;;;;;;;23.92;12.13;;;;;;;6.24;100.00;102090.97;10523059;28;20068;-81
2022/01/19 13:51:37;;;;;;;22.92;11.07;;;;;;;6.23;100.00;102081.22;10527117;28;20040;-80
2022/01/19 13:56:39;;;;;;;32.03;8.98;;;;;;;6.33;100.00;102078.53;10518145;28;20028;-81
2022/01/19 14:01:51;;;;;;;21.08;8.68;;;;;;;6.33;100.00;102087.44;10510344;28;20042;-80
2022/01/19 14:06:52;;;;;;;12.75;5.82;;;;;;;6.23;100.00;102092.81;10498509;28;20025;-78
2022/01/19 14:12:01;;;;;;;19.63;7.53;;;;;;;6.23;100.00;102090.13;10496932;28;20115;-80
2022/01/19 14:17:03;;;;;;;14.27;7.75;;;;;;;6.28;100.00;102089.69;10499019;28;20112;-79
2022/01/19 14:22:33;;;;;;;18.48;7.35;;;;;;;6.23;100.00;102091.97;10498467;28;20094;-79
2022/01/19 14:28:05;;;;;;;15.27;7.15;;;;;;;6.22;100.00;102082.19;10496058;28;20037;-78
2022/01/19 14:33:09;;;;;;;23.60;7.20;;;;;;;6.25;100.00;102080.09;10505692;28;20368;-77
2022/01/19 14:38:09;;;;;;;13.55;9.45;;;;;;;6.31;100.00;102073.25;10480385;28;20047;-78
2022/01/19 14:43:12;;;;;;;20.42;9.38;;;;;;;6.36;100.00;102075.56;10496668;28;20033;-80
2022/01/19 14:48:14;;;;;;;21.13;8.10;;;;;;;6.41;100.00;102078.66;10514390;28;20459;-81
2022/01/19 14:53:14;;;;;;;25.45;10.88;;;;;;;6.44;100.00;102076.53;10516473;28;20490;-82
2022/01/19 14:58:16;;;;;;;15.80;8.95;;;;;;;6.55;100.00;102078.25;10500883;28;20028;-81
2022/01/19 15:03:16;;;;;;;20.52;10.77;;;;;;;6.67;100.00;102077.09;10497724;28;20036;-81
2022/01/19 15:08:17;;;;;;;22.17;10.00;;;;;;;6.72;100.00;102082.03;10496671;28;20383;-81
2022/01/19 15:13:17;;;;;;;41.15;12.75;;;;;;;6.79;100.00;102093.94;10499019;28;20041;-80
2022/01/19 15:18:18;;;;;;;27.27;11.68;;;;;;;6.83;100.00;102097.19;10512899;28;20471;-82
2022/01/19 15:23:21;;;;;;;26.05;12.25;;;;;;;6.89;100.00;102110.06;10508586;28;20055;-82
2022/01/19 15:28:21;;;;;;;20.08;11.02;;;;;;;6.92;100.00;102104.41;10504906;28;20025;-81
2022/01/19 15:33:22;;;;;;;21.05;12.35;;;;;;;6.93;100.00;102093.50;10504335;28;20029;-81
2022/01/19 15:38:23;;;;;;;18.42;10.73;;;;;;;6.97;100.00;102088.66;10503125;28;20061;-82
2022/01/19 15:43:24;;;;;;;27.77;12.23;;;;;;;7.03;100.00;102106.94;10518995;28;20467;-82
2022/01/19 15:48:25;;;;;;;27.45;12.45;;;;;;;7.04;100.00;102114.03;10485720;28;20388;-80
2022/01/19 15:53:26;;;;;;;21.52;10.38;;;;;;;7.02;100.00;102110.66;10501829;28;20034;-81
2022/01/19 15:58:26;;;;;;;16.73;11.02;;;;;;;7.02;100.00;102112.47;10502159;28;20048;-80
2022/01/19 16:03:26;;;;;;;22.08;11.60;;;;;;;7.05;100.00;102118.44;10502849;28;20035;-81
2022/01/19 16:08:27;;;;;;;27.05;8.77;;;;;;;7.02;100.00;102124.13;10485092;28;20028;-81
2022/01/19 16:13:28;;;;;;;17.92;8.35;;;;;;;7.01;100.00;102121.53;10501012;28;20052;-81
2022/01/19 16:18:29;;;;;;;33.85;8.25;;;;;;;7.04;100.00;102132.03;10485339;28;20460;-81
2022/01/19 16:28:48;;;;;;;14.73;5.93;;;;;;;7.00;100.00;102144.94;10514727;28;20032;-82
2022/01/19 16:33:48;;;;;;;24.48;8.73;;;;;;;6.99;100.00;102162.94;10484012;28;20367;-81
2022/01/19 16:38:49;;;;;;;19.33;6.90;;;;;;;6.98;100.00;102158.53;10501027;28;20055;-81
2022/01/19 16:43:49;;;;;;;16.20;5.53;;;;;;;6.92;100.00;102156.44;10499819;28;20129;-82
2022/01/19 16:48:52;;;;;;;15.95;5.70;;;;;;;6.87;100.00;102176.69;10502076;28;20032;-82
2022/01/19 16:53:52;;;;;;;18.73;6.00;;;;;;;6.68;100.00;102173.00;10501019;28;20109;-82
2022/01/19 16:58:53;;;;;;;21.60;5.95;;;;;;;6.47;100.00;102191.09;10517362;28;20412;-81
2022/01/19 17:03:53;;;;;;;21.25;4.65;;;;;;;6.30;100.00;102189.94;10500675;28;20059;-81
2022/01/19 17:08:54;;;;;;;24.90;7.20;;;;;;;6.20;100.00;102203.38;10516726;28;20123;-81
2022/01/19 17:18:55;;;;;;;16.90;5.63;;;;;;;6.13;100.00;102218.34;10498963;28;20032;-82
2022/01/19 17:23:57;;;;;;;19.58;6.18;;;;;;;6.24;100.00;102220.94;10515758;28;20056;-81
2022/01/19 17:28:57;;;;;;;19.55;6.15;;;;;;;6.35;100.00;102237.94;10499889;28;20035;-82
2022/01/19 17:33:59;;;;;;;18.27;6.85;;;;;;;6.38;100.00;102232.28;10499779;28;20039;-82
2022/01/19 17:38:59;;;;;;;14.93;6.63;;;;;;;6.41;100.00;102240.09;10497858;28;20448;-82
2022/01/19 17:44:00;;;;;;;30.70;7.53;;;;;;;6.44;100.00;102258.66;10500735;28;20054;-81
2022/01/19 17:49:08;;;;;;;30.73;7.32;;;;;;;6.48;100.00;102258.25;10498512;28;20490;-82
2022/01/19 17:54:09;;;;;;;22.15;7.05;;;;;;;6.48;100.00;102265.47;10518762;28;20024;-83
2022/01/19 17:59:09;;;;;;;23.42;6.80;;;;;;;6.52;100.00;102269.59;10497352;28;20119;-82
2022/01/19 18:04:09;;;;;;;20.75;5.97;;;;;;;6.54;100.00;102273.00;10499561;28;20044;-82
2022/01/19 18:09:10;;;;;;;26.00;7.22;;;;;;;6.54;100.00;102267.63;10500271;28;20107;-82
2022/01/19 18:14:10;;;;;;;36.97;7.70;;;;;;;6.59;100.00;102283.34;10481160;28;20115;-82
2022/01/19 18:19:11;;;;;;;37.15;6.80;;;;;;;6.58;100.00;102281.66;10499613;28;20404;-82
2022/01/19 18:24:11;;;;;;;43.90;9.50;;;;;;;6.61;100.00;102284.91;10498979;28;20039;-82
2022/01/19 18:29:12;;;;;;;32.47;8.45;;;;;;;6.48;100.00;102284.31;10524669;28;20062;-83
2022/01/19 18:34:12;;;;;;;30.88;9.65;;;;;;;6.44;100.00;102304.41;10513481;28;20104;-82
2022/01/19 18:39:14;;;;;;;24.50;7.30;;;;;;;6.47;100.00;102298.75;10510886;28;20048;-82
2022/01/19 18:44:14;;;;;;;32.97;7.00;;;;;;;6.57;100.00;102313.06;10499316;28;20028;-82
2022/01/19 18:49:15;;;;;;;29.33;7.70;;;;;;;6.48;100.00;102312.06;10497203;28;20028;-82
2022/01/19 18:54:15;;;;;;;22.10;5.03;;;;;;;6.27;100.00;102317.50;10502776;28;20081;-82
2022/01/19 18:59:16;;;;;;;13.05;5.68;;;;;;;6.24;100.00;102325.00;10507047;28;20107;-82
2022/01/19 19:04:17;;;;;;;36.47;7.45;;;;;;;6.16;100.00;102327.47;10504991;28;20025;-82
2022/01/19 19:09:22;;;;;;;20.98;6.47;;;;;;;5.79;100.00;102338.72;10504750;28;20031;-82
2022/01/19 19:14:22;;;;;;;43.42;7.47;;;;;;;5.50;100.00;102350.09;10505606;28;20028;-82
2022/01/19 19:19:27;;;;;;;53.28;8.05;;;;;;;5.40;100.00;102351.00;10522638;28;20028;-82
2022/01/19 19:24:27;;;;;;;36.58;9.10;;;;;;;5.28;100.00;102360.91;10508490;28;20109;-82
2022/01/19 19:29:28;;;;;;;31.70;8.35;;;;;;;5.24;100.00;102367.53;10508241;28;20185;-82
2022/01/19 19:34:35;;;;;;;28.23;9.73;;;;;;;5.49;100.00;102380.63;10507474;28;20384;-82
2022/01/19 19:39:35;;;;;;;30.35;6.40;;;;;;;5.61;100.00;102386.78;10508695;28;20055;-82
2022/01/19 19:44:35;;;;;;;23.05;7.43;;;;;;;5.57;100.00;102394.25;10503686;28;20495;-82
2022/01/19 19:49:36;;;;;;;24.48;6.25;;;;;;;5.62;100.00;102407.34;10490027;28;20055;-82
2022/01/19 19:54:36;;;;;;;26.90;6.50;;;;;;;5.69;100.00;102402.28;10508863;28;20074;-83
2022/01/19 19:59:37;;;;;;;25.23;7.05;;;;;;;5.77;100.00;102408.72;10492496;28;20128;-81
2022/01/19 20:04:37;;;;;;;33.65;6.60;;;;;;;5.71;100.00;102409.25;10500904;28;20028;-81
2022/01/19 20:09:38;;;;;;;26.13;6.28;;;;;;;5.68;100.00;102424.75;10503615;28;20036;-81
2022/01/19 20:14:38;;;;;;;15.55;4.78;;;;;;;5.48;100.00;102431.78;10502816;28;20464;-81
2022/01/19 20:19:39;;;;;;;18.15;5.72;;;;;;;5.31;100.00;102435.88;10485838;28;20035;-81
2022/01/19 20:24:39;;;;;;;34.95;8.05;;;;;;;5.12;100.00;102441.88;10484780;28;20156;-82
2022/01/19 20:29:40;;;;;;;22.55;6.82;;;;;;;5.15;100.00;102448.84;10488201;28;20032;-81
2022/01/19 20:34:40;;;;;;;15.80;6.07;;;;;;;5.50;100.00;102467.47;10525742;28;20043;-80
2022/01/19 20:39:41;;;;;;;22.73;7.50;;;;;;;5.74;100.00;102459.19;10513550;28;20095;-82
2022/01/19 20:44:41;;;;;;;29.63;4.63;;;;;;;5.98;100.00;102473.31;10486806;28;20067;-81
2022/01/19 20:49:41;;;;;;;13.20;5.50;;;;;;;6.17;100.00;102461.84;10501574;28;20036;-82
2022/01/19 20:54:42;;;;;;;23.27;5.68;;;;;;;6.28;100.00;102469.84;10499712;28;20443;-82
2022/01/19 20:59:42;;;;;;;31.63;6.00;;;;;;;6.31;100.00;102470.56;10501978;28;20037;-81
2022/01/19 21:04:43;;;;;;;24.13;5.60;;;;;;;6.23;100.00;102479.31;10499974;28;20042;-81
2022/01/19 21:09:43;;;;;;;26.58;5.43;;;;;;;6.02;100.00;102484.66;10499573;28;20419;-81
2022/01/19 21:14:46;;;;;;;16.42;7.20;;;;;;;5.83;100.00;102494.22;10499411;28;20115;-82
2022/01/19 21:19:46;;;;;;;12.23;5.38;;;;;;;5.83;100.00;102496.06;10521241;28;20037;-82
2022/01/19 21:24:48;;;;;;;31.38;8.05;;;;;;;5.60;100.00;102501.50;10504036;28;20035;-80
2022/01/19 21:29:49;;;;;;;20.75;6.60;;;;;;;5.44;100.00;102494.81;10515360;28;20036;-82
2022/01/19 21:34:49;;;;;;;36.83;9.15;;;;;;;5.39;100.00;102487.13;10498457;28;20105;-82
2022/01/19 21:39:50;;;;;;;22.40;5.78;;;;;;;5.33;100.00;102496.56;10481529;28;20059;-82
2022/01/19 21:44:50;;;;;;;24.95;7.53;;;;;;;5.25;100.00;102501.69;10500535;28;20090;-82
2022/01/19 21:49:50;;;;;;;33.22;5.85;;;;;;;5.28;100.00;102517.56;10498144;28;20028;-82
2022/01/19 21:54:51;;;;;;;28.58;6.85;;;;;;;5.45;100.00;102526.06;10498491;28;20021;-81
2022/01/19 21:59:51;;;;;;;20.17;7.28;;;;;;;5.71;100.00;102527.50;10498543;28;20424;-81
2022/01/19 22:04:52;;;;;;;26.10;5.78;;;;;;;5.81;100.00;102543.75;10499307;28;20119;-81
2022/01/19 22:09:52;;;;;;;11.32;4.03;;;;;;;5.78;100.00;102541.31;10526838;28;20063;-81
2022/01/19 22:14:53;;;;;;;18.50;3.92;;;;;;;5.75;100.00;102545.09;10508676;28;20086;-82
2022/01/19 22:19:53;;;;;;;15.60;4.00;;;;;;;5.74;100.00;102535.34;10484183;28;20068;-82
2022/01/19 22:24:53;;;;;;;27.17;5.20;;;;;;;5.50;100.00;102534.63;10499086;28;20119;-82
2022/01/19 22:29:54;;;;;;;15.90;4.38;;;;;;;5.28;100.00;102551.63;10504961;28;20059;-80
2022/01/19 22:34:54;;;;;;;13.60;4.53;;;;;;;5.02;100.00;102534.91;10506666;28;20029;-82
2022/01/19 22:39:55;;;;;;;21.95;6.15;;;;;;;4.95;100.00;102541.72;10504993;28;20106;-81
2022/01/19 22:44:56;;;;;;;26.35;5.18;;;;;;;4.98;100.00;102552.19;10506804;28;20035;-82
2022/01/19 22:49:56;;;;;;;29.60;5.53;;;;;;;5.20;100.00;102543.31;10488590;28;20032;-81
2022/01/19 22:54:58;;;;;;;14.13;4.38;;;;;;;5.13;100.00;102557.22;10505364;28;20119;-82
2022/01/19 22:59:58;;;;;;;27.13;5.88;;;;;;;5.09;100.00;102542.31;10522249;28;20068;-82
2022/01/19 23:04:59;;;;;;;22.67;6.25;;;;;;;5.19;100.00;102534.41;10504518;28;20056;-82
2022/01/19 23:10:01;;;;;;;19.48;5.85;;;;;;;5.44;100.00;102532.44;10512453;28;20059;-81
2022/01/19 23:15:03;;;;;;;23.02;5.35;;;;;;;5.62;100.00;102538.16;10537165;28;20029;-82
2022/01/19 23:20:04;;;;;;;14.00;4.68;;;;;;;5.53;100.00;102539.75;10520470;28;20033;-81
2022/01/19 23:25:08;;;;;;;12.35;5.93;;;;;;;5.50;100.00;102551.59;10506637;28;20376;-82
2022/01/19 23:30:10;;;;;;;19.02;6.10;;;;;;;5.76;100.00;102551.31;10505533;28;20029;-82
2022/01/19 23:35:13;;;;;;;14.70;6.00;;;;;;;5.94;100.00;102549.84;10471097;28;20467;-81
2022/01/19 23:50:44;;;;;;;6.53;3.33;;;;;;;5.56;100.00;102545.72;10505267;28;20037;-81
2022/01/19 23:55:44;;;;;;;7.78;3.42;;;;;;;5.34;100.00;102551.13;10504548;28;20476;-81
